createdAt,value
2018-11-29T00:00:18.787Z,15.20
2018-11-29T00:00:56.439Z,15.20
2018-11-29T00:01:33.962Z,15.20
2018-11-29T00:02:11.394Z,15.10
2018-11-29T00:02:48.896Z,15.10
2018-11-29T00:03:26.285Z,15.10
2018-11-29T00:04:03.706Z,15.10
2018-11-29T00:04:41.188Z,15.10
2018-11-29T00:05:18.726Z,15.10
2018-11-29T00:05:56.298Z,15.10
2018-11-29T00:06:33.766Z,15.10
2018-11-29T00:07:11.167Z,15.10
2018-11-29T00:07:48.554Z,15.10
2018-11-29T00:08:26.018Z,15.10
2018-11-29T00:09:03.606Z,15.10
2018-11-29T00:09:41.076Z,15.10
2018-11-29T00:10:18.575Z,15.10
2018-11-29T00:10:56.035Z,15.10
2018-11-29T00:11:33.476Z,15.10
2018-11-29T00:12:10.960Z,15.10
2018-11-29T00:12:48.291Z,15.10
2018-11-29T00:13:25.599Z,15.10
2018-11-29T00:14:02.959Z,15.10
2018-11-29T00:14:40.454Z,15.10
2018-11-29T00:15:17.901Z,15.10
2018-11-29T00:15:55.302Z,15.10
2018-11-29T00:16:32.589Z,15.00
2018-11-29T00:17:09.974Z,15.00
2018-11-29T00:17:47.218Z,15.10
2018-11-29T00:18:24.746Z,15.10
2018-11-29T00:19:02.251Z,15.10
2018-11-29T00:19:39.692Z,15.10
2018-11-29T00:20:17.357Z,15.10
2018-11-29T00:20:55.208Z,15.10
2018-11-29T00:21:33.104Z,15.10
2018-11-29T00:22:10.626Z,15.10
2018-11-29T00:22:48.024Z,15.10
2018-11-29T00:23:25.507Z,15.10
2018-11-29T00:24:03.024Z,15.10
2018-11-29T00:24:40.562Z,15.10
2018-11-29T00:25:17.964Z,15.10
2018-11-29T00:25:55.511Z,15.00
2018-11-29T00:26:33.104Z,15.00
2018-11-29T00:27:10.722Z,15.00
2018-11-29T00:27:48.234Z,15.10
2018-11-29T00:28:25.678Z,15.00
2018-11-29T00:29:02.963Z,15.10
2018-11-29T00:29:40.332Z,15.00
2018-11-29T00:30:18.293Z,15.10
2018-11-29T00:30:55.764Z,15.10
2018-11-29T00:31:33.380Z,15.00
2018-11-29T00:32:10.825Z,15.00
2018-11-29T00:32:48.737Z,15.10
2018-11-29T00:33:26.215Z,15.10
2018-11-29T00:34:03.664Z,15.00
2018-11-29T00:34:40.954Z,15.00
2018-11-29T00:35:18.570Z,15.00
2018-11-29T00:35:55.987Z,15.10
2018-11-29T00:36:33.533Z,15.10
2018-11-29T00:37:11.072Z,15.00
2018-11-29T00:37:48.555Z,15.10
2018-11-29T00:38:26.153Z,15.00
2018-11-29T00:39:03.614Z,15.10
2018-11-29T00:39:41.156Z,15.00
2018-11-29T00:40:18.324Z,15.00
2018-11-29T00:40:55.696Z,15.10
2018-11-29T00:41:33.083Z,15.00
2018-11-29T00:42:10.383Z,15.00
2018-11-29T00:42:47.928Z,15.00
2018-11-29T00:43:25.452Z,15.00
2018-11-29T00:44:02.912Z,15.00
2018-11-29T00:44:40.313Z,15.00
2018-11-29T00:45:17.519Z,15.00
2018-11-29T00:45:55.148Z,15.00
2018-11-29T00:46:32.602Z,15.00
2018-11-29T00:47:10.262Z,15.00
2018-11-29T00:47:47.603Z,15.00
2018-11-29T00:48:25.171Z,15.00
2018-11-29T00:49:02.576Z,15.00
2018-11-29T00:49:40.029Z,15.00
2018-11-29T00:50:17.332Z,15.00
2018-11-29T00:50:54.819Z,15.00
2018-11-29T00:51:32.353Z,15.00
2018-11-29T00:52:09.865Z,15.00
2018-11-29T00:52:47.452Z,15.00
2018-11-29T00:53:24.884Z,15.00
2018-11-29T00:54:02.389Z,15.00
2018-11-29T00:54:39.822Z,15.00
2018-11-29T00:55:17.277Z,15.00
2018-11-29T00:55:54.802Z,15.00
2018-11-29T00:56:32.152Z,15.00
2018-11-29T00:57:09.731Z,15.00
2018-11-29T00:57:47.261Z,15.00
2018-11-29T00:58:24.573Z,15.00
2018-11-29T00:59:02.192Z,15.00
2018-11-29T00:59:39.494Z,15.00
2018-11-29T01:00:16.891Z,15.10
2018-11-29T01:00:54.461Z,15.10
2018-11-29T01:01:31.801Z,15.10
2018-11-29T01:02:09.380Z,15.10
2018-11-29T01:02:46.872Z,15.00
2018-11-29T01:03:24.450Z,15.00
2018-11-29T01:04:01.875Z,15.10
2018-11-29T01:04:39.110Z,15.10
2018-11-29T01:05:16.460Z,15.00
2018-11-29T01:05:53.976Z,15.00
2018-11-29T01:06:31.327Z,15.00
2018-11-29T01:07:08.707Z,15.00
2018-11-29T01:07:46.202Z,14.90
2018-11-29T01:08:23.462Z,14.90
2018-11-29T01:09:01.324Z,14.90
2018-11-29T01:09:38.783Z,14.90
2018-11-29T01:10:16.132Z,14.90
2018-11-29T01:10:53.684Z,14.90
2018-11-29T01:11:31.113Z,14.80
2018-11-29T01:12:08.540Z,14.90
2018-11-29T01:12:46.111Z,14.90
2018-11-29T01:13:23.532Z,14.90
2018-11-29T01:14:00.941Z,14.90
2018-11-29T01:14:38.380Z,14.90
2018-11-29T01:15:15.703Z,15.00
2018-11-29T01:15:53.182Z,15.00
2018-11-29T01:16:30.733Z,14.90
2018-11-29T01:17:08.260Z,14.90
2018-11-29T01:17:45.630Z,14.90
2018-11-29T01:18:22.930Z,14.90
2018-11-29T01:19:00.260Z,15.00
2018-11-29T01:19:37.947Z,15.00
2018-11-29T01:20:15.349Z,15.00
2018-11-29T01:20:52.802Z,15.00
2018-11-29T01:21:30.022Z,14.90
2018-11-29T01:22:07.449Z,15.00
2018-11-29T01:22:44.841Z,15.00
2018-11-29T01:23:22.368Z,14.90
2018-11-29T01:23:59.674Z,14.90
2018-11-29T01:24:36.914Z,14.90
2018-11-29T01:25:14.180Z,14.90
2018-11-29T01:25:51.590Z,14.90
2018-11-29T01:26:28.950Z,15.00
2018-11-29T01:27:06.310Z,15.00
2018-11-29T01:27:44.053Z,15.10
2018-11-29T01:28:21.480Z,15.10
2018-11-29T01:28:58.911Z,15.20
2018-11-29T01:29:36.367Z,15.20
2018-11-29T01:30:13.854Z,15.30
2018-11-29T01:30:51.444Z,15.30
2018-11-29T01:31:28.741Z,15.40
2018-11-29T01:32:06.203Z,15.30
2018-11-29T01:32:43.521Z,15.30
2018-11-29T01:33:20.881Z,15.40
2018-11-29T01:33:58.356Z,15.40
2018-11-29T01:34:35.849Z,15.40
2018-11-29T01:35:13.271Z,15.40
2018-11-29T01:35:50.583Z,15.40
2018-11-29T01:36:27.880Z,15.40
2018-11-29T01:37:05.398Z,15.40
2018-11-29T01:37:42.712Z,15.40
2018-11-29T01:38:20.086Z,15.40
2018-11-29T01:38:57.438Z,15.40
2018-11-29T01:39:34.658Z,15.40
2018-11-29T01:40:11.896Z,15.40
2018-11-29T01:40:49.251Z,15.40
2018-11-29T01:41:26.730Z,15.40
2018-11-29T01:42:04.361Z,15.40
2018-11-29T01:42:41.860Z,15.50
2018-11-29T01:43:19.387Z,15.50
2018-11-29T01:43:56.762Z,15.50
2018-11-29T01:44:34.285Z,15.40
2018-11-29T01:45:11.673Z,15.50
2018-11-29T01:45:48.916Z,15.50
2018-11-29T01:46:26.610Z,15.50
2018-11-29T01:47:03.935Z,15.50
2018-11-29T01:47:41.289Z,15.50
2018-11-29T01:48:18.822Z,15.50
2018-11-29T01:48:56.340Z,15.50
2018-11-29T01:49:33.618Z,15.50
2018-11-29T01:50:10.830Z,15.50
2018-11-29T01:50:48.239Z,15.50
2018-11-29T01:51:25.869Z,15.50
2018-11-29T01:52:03.220Z,15.50
2018-11-29T01:52:40.759Z,15.50
2018-11-29T01:53:18.400Z,15.50
2018-11-29T01:53:55.969Z,15.50
2018-11-29T01:54:33.505Z,15.50
2018-11-29T01:55:11.063Z,15.50
2018-11-29T01:55:48.530Z,15.50
2018-11-29T01:56:26.170Z,15.50
2018-11-29T01:57:03.475Z,15.60
2018-11-29T01:57:40.984Z,15.50
2018-11-29T01:58:18.229Z,15.50
2018-11-29T01:58:55.721Z,15.50
2018-11-29T01:59:33.144Z,15.50
2018-11-29T02:00:10.422Z,15.60
2018-11-29T02:00:48.043Z,15.50
2018-11-29T02:01:25.410Z,15.50
2018-11-29T02:02:02.862Z,15.60
2018-11-29T02:02:40.152Z,15.60
2018-11-29T02:03:17.541Z,15.60
2018-11-29T02:03:55.185Z,15.60
2018-11-29T02:04:32.621Z,15.60
2018-11-29T02:05:10.005Z,15.60
2018-11-29T02:05:47.557Z,15.50
2018-11-29T02:06:25.209Z,15.60
2018-11-29T02:07:02.676Z,15.60
2018-11-29T02:07:40.438Z,15.60
2018-11-29T02:08:17.946Z,15.60
2018-11-29T02:08:55.540Z,15.60
2018-11-29T02:09:33.090Z,15.50
2018-11-29T02:10:10.519Z,15.50
2018-11-29T02:10:48.033Z,15.50
2018-11-29T02:11:25.658Z,15.50
2018-11-29T02:12:02.956Z,15.50
2018-11-29T02:12:40.490Z,15.50
2018-11-29T02:13:17.999Z,15.50
2018-11-29T02:13:55.659Z,15.50
2018-11-29T02:14:33.144Z,15.50
2018-11-29T02:15:10.530Z,15.50
2018-11-29T02:15:47.929Z,15.50
2018-11-29T02:16:25.352Z,15.50
2018-11-29T02:17:02.891Z,15.50
2018-11-29T02:17:40.452Z,15.50
2018-11-29T02:18:17.971Z,15.50
2018-11-29T02:18:55.370Z,15.50
2018-11-29T02:19:33.031Z,15.50
2018-11-29T02:20:10.418Z,15.50
2018-11-29T02:20:47.998Z,15.50
2018-11-29T02:21:25.370Z,15.50
2018-11-29T02:22:02.642Z,15.50
2018-11-29T02:22:39.965Z,15.50
2018-11-29T02:23:17.439Z,15.50
2018-11-29T02:23:54.828Z,15.50
2018-11-29T02:24:32.302Z,15.50
2018-11-29T02:25:09.499Z,15.60
2018-11-29T02:25:46.931Z,15.60
2018-11-29T02:26:24.559Z,15.50
2018-11-29T02:27:01.996Z,15.50
2018-11-29T02:27:39.518Z,15.50
2018-11-29T02:28:16.893Z,15.50
2018-11-29T02:28:54.371Z,15.50
2018-11-29T02:29:31.901Z,15.50
2018-11-29T02:30:09.283Z,15.50
2018-11-29T02:30:46.838Z,15.60
2018-11-29T02:31:24.342Z,15.50
2018-11-29T02:32:01.874Z,15.50
2018-11-29T02:32:39.199Z,15.50
2018-11-29T02:33:16.738Z,15.50
2018-11-29T02:33:54.293Z,15.50
2018-11-29T02:34:31.610Z,15.50
2018-11-29T02:35:09.141Z,15.50
2018-11-29T02:35:46.625Z,15.50
2018-11-29T02:36:24.175Z,15.50
2018-11-29T02:37:01.690Z,15.50
2018-11-29T02:37:38.949Z,15.50
2018-11-29T02:38:16.483Z,15.50
2018-11-29T02:38:54.110Z,15.50
2018-11-29T02:39:31.510Z,15.50
2018-11-29T02:40:08.752Z,15.50
2018-11-29T02:40:46.039Z,15.60
2018-11-29T02:41:23.636Z,15.50
2018-11-29T02:42:01.177Z,15.60
2018-11-29T02:42:38.580Z,15.50
2018-11-29T02:43:15.963Z,15.60
2018-11-29T02:43:53.559Z,15.60
2018-11-29T02:44:30.997Z,15.60
2018-11-29T02:45:08.478Z,15.60
2018-11-29T02:45:45.718Z,15.60
2018-11-29T02:46:23.396Z,15.60
2018-11-29T02:47:00.820Z,15.60
2018-11-29T02:47:38.319Z,15.60
2018-11-29T02:48:15.838Z,15.60
2018-11-29T02:48:53.348Z,15.60
2018-11-29T02:49:30.922Z,15.60
2018-11-29T02:50:08.331Z,15.60
2018-11-29T02:50:45.684Z,15.60
2018-11-29T02:51:23.212Z,15.60
2018-11-29T02:52:00.691Z,15.60
2018-11-29T02:52:38.055Z,15.60
2018-11-29T02:53:15.538Z,15.60
2018-11-29T02:53:53.090Z,15.60
2018-11-29T02:54:30.532Z,15.60
2018-11-29T02:55:07.869Z,15.60
2018-11-29T02:55:45.501Z,15.60
2018-11-29T02:56:22.959Z,15.60
2018-11-29T02:57:00.567Z,15.60
2018-11-29T02:57:38.083Z,15.60
2018-11-29T02:58:15.368Z,15.60
2018-11-29T02:58:53.006Z,15.60
2018-11-29T02:59:30.389Z,15.60
2018-11-29T03:00:07.844Z,15.50
2018-11-29T03:00:45.229Z,15.50
2018-11-29T03:01:22.639Z,15.60
2018-11-29T03:02:00.030Z,15.60
2018-11-29T03:02:37.464Z,15.60
2018-11-29T03:03:15.157Z,15.60
2018-11-29T03:03:52.597Z,15.60
2018-11-29T03:04:30.040Z,15.60
2018-11-29T03:05:07.360Z,15.60
2018-11-29T03:05:44.797Z,15.60
2018-11-29T03:06:22.297Z,15.60
2018-11-29T03:06:59.869Z,15.60
2018-11-29T03:07:37.283Z,15.60
2018-11-29T03:08:14.791Z,16.00
2018-11-29T03:08:52.153Z,15.60
2018-11-29T03:09:29.476Z,15.60
2018-11-29T03:10:06.741Z,15.60
2018-11-29T03:10:43.997Z,15.60
2018-11-29T03:11:21.153Z,15.60
2018-11-29T03:11:58.624Z,15.60
2018-11-29T03:12:36.227Z,15.60
2018-11-29T03:13:13.612Z,15.60
2018-11-29T03:13:51.186Z,15.60
2018-11-29T03:14:28.587Z,15.50
2018-11-29T03:15:05.987Z,15.50
2018-11-29T03:15:43.210Z,15.50
2018-11-29T03:16:20.646Z,15.50
2018-11-29T03:16:58.010Z,15.50
2018-11-29T03:17:35.706Z,15.50
2018-11-29T03:18:13.125Z,15.50
2018-11-29T03:18:50.446Z,15.60
2018-11-29T03:19:27.816Z,15.50
2018-11-29T03:20:05.296Z,15.50
2018-11-29T03:20:42.696Z,15.50
2018-11-29T03:21:20.203Z,15.50
2018-11-29T03:21:57.686Z,15.50
2018-11-29T03:22:35.014Z,15.50
2018-11-29T03:23:12.460Z,15.50
2018-11-29T03:23:49.825Z,15.60
2018-11-29T03:24:27.385Z,15.50
2018-11-29T03:25:04.765Z,15.50
2018-11-29T03:25:42.068Z,15.50
2018-11-29T03:26:19.332Z,15.50
2018-11-29T03:26:56.855Z,15.60
2018-11-29T03:27:34.403Z,15.60
2018-11-29T03:28:11.758Z,15.60
2018-11-29T03:28:49.060Z,15.60
2018-11-29T03:29:26.603Z,15.60
2018-11-29T03:30:03.982Z,15.60
2018-11-29T03:30:41.479Z,15.60
2018-11-29T03:31:18.758Z,15.60
2018-11-29T03:31:56.325Z,15.60
2018-11-29T03:32:33.826Z,15.60
2018-11-29T03:33:11.374Z,15.60
2018-11-29T03:33:48.865Z,15.60
2018-11-29T03:34:26.245Z,15.60
2018-11-29T03:35:03.654Z,15.60
2018-11-29T03:35:44.486Z,15.60
2018-11-29T03:36:18.713Z,15.60
2018-11-29T03:36:56.195Z,15.50
2018-11-29T03:37:33.774Z,15.50
2018-11-29T03:38:11.234Z,15.50
2018-11-29T03:38:48.743Z,15.50
2018-11-29T03:39:26.084Z,15.50
2018-11-29T03:40:03.522Z,15.60
2018-11-29T03:40:41.157Z,15.60
2018-11-29T03:41:18.696Z,15.60
2018-11-29T03:41:56.094Z,15.60
2018-11-29T03:42:33.584Z,15.60
2018-11-29T03:43:10.873Z,15.60
2018-11-29T03:43:48.152Z,15.60
2018-11-29T03:44:25.464Z,15.60
2018-11-29T03:45:02.947Z,15.60
2018-11-29T03:45:40.161Z,15.60
2018-11-29T03:46:17.450Z,15.60
2018-11-29T03:46:54.974Z,15.60
2018-11-29T03:47:32.474Z,15.50
2018-11-29T03:48:10.095Z,15.50
2018-11-29T03:48:47.392Z,15.60
2018-11-29T03:49:24.814Z,15.50
2018-11-29T03:50:02.267Z,15.60
2018-11-29T03:50:39.662Z,15.60
2018-11-29T03:51:17.265Z,15.60
2018-11-29T03:51:54.625Z,15.60
2018-11-29T03:52:31.903Z,15.60
2018-11-29T03:53:09.335Z,15.50
2018-11-29T03:53:46.907Z,15.60
2018-11-29T03:54:24.293Z,15.60
2018-11-29T03:55:01.771Z,15.60
2018-11-29T03:55:39.233Z,15.60
2018-11-29T03:56:16.890Z,15.60
2018-11-29T03:56:54.284Z,15.60
2018-11-29T03:57:31.541Z,15.60
2018-11-29T03:58:08.891Z,15.60
2018-11-29T03:58:46.312Z,15.60
2018-11-29T03:59:23.732Z,15.60
2018-11-29T04:00:01.027Z,15.60
2018-11-29T04:00:38.479Z,15.60
2018-11-29T04:01:15.930Z,15.60
2018-11-29T04:01:53.158Z,15.60
2018-11-29T04:02:30.484Z,15.60
2018-11-29T04:03:07.979Z,15.60
2018-11-29T04:03:45.281Z,15.60
2018-11-29T04:04:22.807Z,15.60
2018-11-29T04:05:00.073Z,15.60
2018-11-29T04:05:37.676Z,15.60
2018-11-29T04:06:15.156Z,15.60
2018-11-29T04:06:52.631Z,15.70
2018-11-29T04:07:30.063Z,15.70
2018-11-29T04:08:07.557Z,15.70
2018-11-29T04:08:44.983Z,15.60
2018-11-29T04:09:22.542Z,15.70
2018-11-29T04:09:59.913Z,15.60
2018-11-29T04:10:37.354Z,15.60
2018-11-29T04:11:14.671Z,15.60
2018-11-29T04:11:52.135Z,15.60
2018-11-29T04:12:29.584Z,15.50
2018-11-29T04:13:06.911Z,15.60
2018-11-29T04:13:44.213Z,15.60
2018-11-29T04:14:21.624Z,15.50
2018-11-29T04:14:59.204Z,15.60
2018-11-29T04:15:36.759Z,15.60
2018-11-29T04:16:14.166Z,15.60
2018-11-29T04:16:51.592Z,15.60
2018-11-29T04:17:29.116Z,15.60
2018-11-29T04:18:06.437Z,15.60
2018-11-29T04:18:43.951Z,15.60
2018-11-29T04:19:21.159Z,15.60
2018-11-29T04:19:58.510Z,15.60
2018-11-29T04:20:35.881Z,15.60
2018-11-29T04:21:13.283Z,15.60
2018-11-29T04:21:50.760Z,15.60
2018-11-29T04:22:28.010Z,15.70
2018-11-29T04:23:05.502Z,15.60
2018-11-29T04:23:42.882Z,15.60
2018-11-29T04:24:20.189Z,15.60
2018-11-29T04:24:57.671Z,15.60
2018-11-29T04:25:35.169Z,15.60
2018-11-29T04:26:12.567Z,15.50
2018-11-29T04:26:50.059Z,15.50
2018-11-29T04:27:27.356Z,15.60
2018-11-29T04:28:04.891Z,15.60
2018-11-29T04:28:42.349Z,15.60
2018-11-29T04:29:19.599Z,15.50
2018-11-29T04:29:56.899Z,15.50
2018-11-29T04:30:34.405Z,15.60
2018-11-29T04:31:11.912Z,15.60
2018-11-29T04:31:49.491Z,15.60
2018-11-29T04:32:27.040Z,15.60
2018-11-29T04:33:04.648Z,15.60
2018-11-29T04:33:42.278Z,15.60
2018-11-29T04:34:19.831Z,15.60
2018-11-29T04:34:57.303Z,15.50
2018-11-29T04:35:34.743Z,15.50
2018-11-29T04:36:12.172Z,15.60
2018-11-29T04:36:49.400Z,15.60
2018-11-29T04:37:26.821Z,15.60
2018-11-29T04:38:04.266Z,15.60
2018-11-29T04:38:41.717Z,15.60
2018-11-29T04:39:19.062Z,15.60
2018-11-29T04:39:56.452Z,15.60
2018-11-29T04:40:33.980Z,15.60
2018-11-29T04:41:11.365Z,15.60
2018-11-29T04:41:48.905Z,15.60
2018-11-29T04:42:26.242Z,15.60
2018-11-29T04:43:03.798Z,15.60
2018-11-29T04:43:41.453Z,15.60
2018-11-29T04:44:18.878Z,15.60
2018-11-29T04:44:56.318Z,15.60
2018-11-29T04:45:33.636Z,15.60
2018-11-29T04:46:11.211Z,15.50
2018-11-29T04:46:49.051Z,15.50
2018-11-29T04:47:26.633Z,15.50
2018-11-29T04:48:09.857Z,15.50
2018-11-29T04:48:41.404Z,15.60
2018-11-29T04:49:18.819Z,15.50
2018-11-29T04:49:56.351Z,15.50
2018-11-29T04:50:33.997Z,15.50
2018-11-29T04:51:11.545Z,15.50
2018-11-29T04:51:48.876Z,15.50
2018-11-29T04:52:26.416Z,15.50
2018-11-29T04:53:03.872Z,15.50
2018-11-29T04:53:41.339Z,15.50
2018-11-29T04:54:18.719Z,15.50
2018-11-29T04:54:56.115Z,15.50
2018-11-29T04:55:33.425Z,15.60
2018-11-29T04:56:10.903Z,15.50
2018-11-29T04:56:48.388Z,15.50
2018-11-29T04:57:25.789Z,15.50
2018-11-29T04:58:03.084Z,15.50
2018-11-29T04:58:40.446Z,15.50
2018-11-29T04:59:17.998Z,15.50
2018-11-29T04:59:55.476Z,15.60
2018-11-29T05:00:32.769Z,15.60
2018-11-29T05:01:10.265Z,15.60
2018-11-29T05:01:47.595Z,15.60
2018-11-29T05:02:24.860Z,15.60
2018-11-29T05:03:02.255Z,15.60
2018-11-29T05:03:39.740Z,15.60
2018-11-29T05:04:17.217Z,15.60
2018-11-29T05:04:54.492Z,15.70
2018-11-29T05:05:32.505Z,15.60
2018-11-29T05:06:10.005Z,15.70
2018-11-29T05:06:47.434Z,15.70
2018-11-29T05:07:24.934Z,15.70
2018-11-29T05:08:02.423Z,15.70
2018-11-29T05:08:39.873Z,15.70
2018-11-29T05:09:17.356Z,15.70
2018-11-29T05:09:54.776Z,15.70
2018-11-29T05:10:32.104Z,15.70
2018-11-29T05:11:09.949Z,15.70
2018-11-29T05:11:47.176Z,15.70
2018-11-29T05:12:24.669Z,15.90
2018-11-29T05:13:02.366Z,15.70
2018-11-29T05:13:39.797Z,15.70
2018-11-29T05:14:17.025Z,15.70
2018-11-29T05:14:54.985Z,15.70
2018-11-29T05:15:32.433Z,15.70
2018-11-29T05:16:09.700Z,15.70
2018-11-29T05:16:47.134Z,15.70
2018-11-29T05:17:24.373Z,15.70
2018-11-29T05:18:01.881Z,15.70
2018-11-29T05:18:39.397Z,15.60
2018-11-29T05:19:16.865Z,15.60
2018-11-29T05:19:54.420Z,15.60
2018-11-29T05:20:31.736Z,15.60
2018-11-29T05:21:09.195Z,15.60
2018-11-29T05:21:46.545Z,15.60
2018-11-29T05:22:24.023Z,15.60
2018-11-29T05:23:01.626Z,15.60
2018-11-29T05:23:39.038Z,15.60
2018-11-29T05:24:16.499Z,15.60
2018-11-29T05:24:53.845Z,15.60
2018-11-29T05:25:31.338Z,15.60
2018-11-29T05:26:08.957Z,15.60
2018-11-29T05:26:46.515Z,15.50
2018-11-29T05:27:23.825Z,15.60
2018-11-29T05:28:01.208Z,15.60
2018-11-29T05:28:38.579Z,15.60
2018-11-29T05:29:15.916Z,15.60
2018-11-29T05:29:53.337Z,15.60
2018-11-29T05:30:30.669Z,15.60
2018-11-29T05:31:07.991Z,15.60
2018-11-29T05:31:45.376Z,15.60
2018-11-29T05:32:22.835Z,15.60
2018-11-29T05:33:00.025Z,15.60
2018-11-29T05:33:37.329Z,15.60
2018-11-29T05:34:14.658Z,15.60
2018-11-29T05:34:52.152Z,15.60
2018-11-29T05:35:29.647Z,15.60
2018-11-29T05:36:07.023Z,15.70
2018-11-29T05:36:44.299Z,15.60
2018-11-29T05:37:21.607Z,15.70
2018-11-29T05:37:59.020Z,15.70
2018-11-29T05:38:36.371Z,15.70
2018-11-29T05:39:13.839Z,15.70
2018-11-29T05:39:51.257Z,15.60
2018-11-29T05:40:28.776Z,15.60
2018-11-29T05:41:06.263Z,15.60
2018-11-29T05:41:43.500Z,15.10
2018-11-29T05:42:20.773Z,15.60
2018-11-29T05:42:58.277Z,15.60
2018-11-29T05:43:35.655Z,15.60
2018-11-29T05:44:13.054Z,15.60
2018-11-29T05:44:50.214Z,15.60
2018-11-29T05:45:27.770Z,15.60
2018-11-29T05:46:05.263Z,15.60
2018-11-29T05:46:42.714Z,15.70
2018-11-29T05:47:20.148Z,15.60
2018-11-29T05:47:57.643Z,15.70
2018-11-29T05:48:34.999Z,15.70
2018-11-29T05:49:12.247Z,15.70
2018-11-29T05:49:49.456Z,15.70
2018-11-29T05:50:26.684Z,15.70
2018-11-29T05:51:03.986Z,15.70
2018-11-29T05:51:41.336Z,15.70
2018-11-29T05:52:19.240Z,15.70
2018-11-29T05:52:56.523Z,15.70
2018-11-29T05:53:34.037Z,15.70
2018-11-29T05:54:11.315Z,15.70
2018-11-29T05:54:48.928Z,15.60
2018-11-29T05:55:26.272Z,15.70
2018-11-29T05:56:03.634Z,15.70
2018-11-29T05:56:41.266Z,15.70
2018-11-29T05:57:18.667Z,15.70
2018-11-29T05:57:55.831Z,15.70
2018-11-29T05:58:33.209Z,15.70
2018-11-29T05:59:10.698Z,15.70
2018-11-29T05:59:48.269Z,15.70
2018-11-29T06:00:26.033Z,15.70
2018-11-29T06:01:03.593Z,15.70
2018-11-29T06:01:41.229Z,15.70
2018-11-29T06:02:18.584Z,15.40
2018-11-29T06:02:55.948Z,15.70
2018-11-29T06:03:33.534Z,15.60
2018-11-29T06:04:11.059Z,15.70
2018-11-29T06:04:48.600Z,15.60
2018-11-29T06:05:26.174Z,15.70
2018-11-29T06:06:03.636Z,15.60
2018-11-29T06:06:40.896Z,15.60
2018-11-29T06:07:18.211Z,15.70
2018-11-29T06:07:55.771Z,15.60
2018-11-29T06:08:33.272Z,15.70
2018-11-29T06:09:10.724Z,15.70
2018-11-29T06:09:48.239Z,15.70
2018-11-29T06:10:25.800Z,15.70
2018-11-29T06:11:03.108Z,15.70
2018-11-29T06:11:40.587Z,15.60
2018-11-29T06:12:18.018Z,15.60
2018-11-29T06:12:55.471Z,15.70
2018-11-29T06:13:33.003Z,15.60
2018-11-29T06:14:10.587Z,15.60
2018-11-29T06:14:48.376Z,15.70
2018-11-29T06:15:26.052Z,15.60
2018-11-29T06:16:03.580Z,15.60
2018-11-29T06:16:41.041Z,15.60
2018-11-29T06:17:18.520Z,15.60
2018-11-29T06:17:55.891Z,15.60
2018-11-29T06:18:33.172Z,15.60
2018-11-29T06:19:10.802Z,15.60
2018-11-29T06:19:48.353Z,15.60
2018-11-29T06:20:25.725Z,15.60
2018-11-29T06:21:03.050Z,15.60
2018-11-29T06:21:40.650Z,15.60
2018-11-29T06:22:18.211Z,15.60
2018-11-29T06:22:55.640Z,15.60
2018-11-29T06:23:32.978Z,15.60
2018-11-29T06:24:13.578Z,15.60
2018-11-29T06:24:48.013Z,15.70
2018-11-29T06:25:25.705Z,15.70
2018-11-29T06:26:03.131Z,15.70
2018-11-29T06:26:40.433Z,15.70
2018-11-29T06:27:17.962Z,15.70
2018-11-29T06:27:56.476Z,15.60
2018-11-29T06:28:33.851Z,15.60
2018-11-29T06:29:11.331Z,15.60
2018-11-29T06:29:48.653Z,15.60
2018-11-29T06:30:26.265Z,15.60
2018-11-29T06:31:03.734Z,15.60
2018-11-29T06:31:41.004Z,15.60
2018-11-29T06:32:18.247Z,15.60
2018-11-29T06:32:55.537Z,15.60
2018-11-29T06:33:32.755Z,15.60
2018-11-29T06:34:10.177Z,15.60
2018-11-29T06:34:47.681Z,15.60
2018-11-29T06:35:25.057Z,15.60
2018-11-29T06:36:02.563Z,15.60
2018-11-29T06:36:39.974Z,15.60
2018-11-29T06:37:17.517Z,15.60
2018-11-29T06:37:54.959Z,15.60
2018-11-29T06:38:32.475Z,15.60
2018-11-29T06:39:10.085Z,15.60
2018-11-29T06:39:47.653Z,15.60
2018-11-29T06:40:25.132Z,15.60
2018-11-29T06:41:02.825Z,15.60
2018-11-29T06:41:40.367Z,15.60
2018-11-29T06:42:17.843Z,15.50
2018-11-29T06:42:55.314Z,15.50
2018-11-29T06:43:32.554Z,15.60
2018-11-29T06:44:09.768Z,15.60
2018-11-29T06:44:47.257Z,15.50
2018-11-29T06:45:24.970Z,15.60
2018-11-29T06:46:02.333Z,15.60
2018-11-29T06:46:39.716Z,15.60
2018-11-29T06:47:17.204Z,15.60
2018-11-29T06:47:54.562Z,15.60
2018-11-29T06:48:31.831Z,15.50
2018-11-29T06:49:09.259Z,15.60
2018-11-29T06:49:46.532Z,15.60
2018-11-29T06:50:23.887Z,15.60
2018-11-29T06:51:01.437Z,15.60
2018-11-29T06:51:39.117Z,15.60
2018-11-29T06:52:16.522Z,15.60
2018-11-29T06:52:54.028Z,15.60
2018-11-29T06:53:31.297Z,15.50
2018-11-29T06:54:08.937Z,15.60
2018-11-29T06:54:46.251Z,15.60
2018-11-29T06:55:23.778Z,15.60
2018-11-29T06:56:01.048Z,15.50
2018-11-29T06:56:41.296Z,15.50
2018-11-29T06:57:19.039Z,15.60
2018-11-29T06:57:56.827Z,15.60
2018-11-29T06:58:34.699Z,15.60
2018-11-29T06:59:12.460Z,15.60
2018-11-29T06:59:49.890Z,15.60
2018-11-29T07:00:27.323Z,15.60
2018-11-29T07:01:04.566Z,15.60
2018-11-29T07:01:42.029Z,15.60
2018-11-29T07:02:19.678Z,15.60
2018-11-29T07:02:57.071Z,15.60
2018-11-29T07:03:34.589Z,15.60
2018-11-29T07:04:11.784Z,15.60
2018-11-29T07:04:49.128Z,15.60
2018-11-29T07:05:26.810Z,15.60
2018-11-29T07:06:04.286Z,15.70
2018-11-29T07:06:41.719Z,15.70
2018-11-29T07:07:19.199Z,15.70
2018-11-29T07:07:56.739Z,15.70
2018-11-29T07:08:34.126Z,15.70
2018-11-29T07:09:11.690Z,15.70
2018-11-29T07:09:49.110Z,15.70
2018-11-29T07:10:26.440Z,15.70
2018-11-29T07:11:03.781Z,15.70
2018-11-29T07:11:41.250Z,15.70
2018-11-29T07:12:18.500Z,15.70
2018-11-29T07:12:55.760Z,15.70
2018-11-29T07:13:33.389Z,15.70
2018-11-29T07:14:10.835Z,15.70
2018-11-29T07:14:48.206Z,15.70
2018-11-29T07:15:25.670Z,15.70
2018-11-29T07:16:03.163Z,15.70
2018-11-29T07:16:40.431Z,15.70
2018-11-29T07:17:17.887Z,15.70
2018-11-29T07:17:55.511Z,15.70
2018-11-29T07:18:32.845Z,15.70
2018-11-29T07:19:14.913Z,15.70
2018-11-29T07:19:47.605Z,15.70
2018-11-29T07:20:25.161Z,15.70
2018-11-29T07:21:02.484Z,15.70
2018-11-29T07:21:40.074Z,15.70
2018-11-29T07:22:17.762Z,15.70
2018-11-29T07:22:55.371Z,15.70
2018-11-29T07:23:32.885Z,15.70
2018-11-29T07:24:10.210Z,15.70
2018-11-29T07:24:47.544Z,15.70
2018-11-29T07:25:24.978Z,15.70
2018-11-29T07:26:02.513Z,15.70
2018-11-29T07:26:40.114Z,15.70
2018-11-29T07:27:17.560Z,15.70
2018-11-29T07:27:54.986Z,15.70
2018-11-29T07:28:32.383Z,15.70
2018-11-29T07:29:09.963Z,15.60
2018-11-29T07:29:47.423Z,15.70
2018-11-29T07:30:25.384Z,15.60
2018-11-29T07:31:02.918Z,15.60
2018-11-29T07:31:40.411Z,15.60
2018-11-29T07:32:17.873Z,15.60
2018-11-29T07:32:55.374Z,15.60
2018-11-29T07:33:32.655Z,15.60
2018-11-29T07:34:10.192Z,15.60
2018-11-29T07:34:47.891Z,15.60
2018-11-29T07:35:25.833Z,15.50
2018-11-29T07:36:03.402Z,15.50
2018-11-29T07:36:40.878Z,15.50
2018-11-29T07:37:18.332Z,15.50
2018-11-29T07:37:55.836Z,15.50
2018-11-29T07:38:33.134Z,15.50
2018-11-29T07:39:10.397Z,15.50
2018-11-29T07:39:47.723Z,15.50
2018-11-29T07:40:25.232Z,15.50
2018-11-29T07:41:02.659Z,15.40
2018-11-29T07:41:40.227Z,15.50
2018-11-29T07:42:17.665Z,15.40
2018-11-29T07:42:54.954Z,15.50
2018-11-29T07:43:32.500Z,15.50
2018-11-29T07:44:10.038Z,15.50
2018-11-29T07:44:47.624Z,15.40
2018-11-29T07:45:25.063Z,15.40
2018-11-29T07:46:02.344Z,15.40
2018-11-29T07:46:39.760Z,15.40
2018-11-29T07:47:17.244Z,15.40
2018-11-29T07:47:54.765Z,15.40
2018-11-29T07:48:32.333Z,15.40
2018-11-29T07:49:09.940Z,15.40
2018-11-29T07:49:47.494Z,15.40
2018-11-29T07:50:24.995Z,15.40
2018-11-29T07:51:02.602Z,15.40
2018-11-29T07:51:40.045Z,15.40
2018-11-29T07:52:17.619Z,15.40
2018-11-29T07:52:55.060Z,15.40
2018-11-29T07:53:32.347Z,15.40
2018-11-29T07:54:09.977Z,15.40
2018-11-29T07:54:47.408Z,15.40
2018-11-29T07:55:25.002Z,15.40
2018-11-29T07:56:02.339Z,15.30
2018-11-29T07:56:39.633Z,15.30
2018-11-29T07:57:17.283Z,15.30
2018-11-29T07:57:54.943Z,15.30
2018-11-29T07:58:32.421Z,15.30
2018-11-29T07:59:09.808Z,15.30
2018-11-29T07:59:47.393Z,15.30
2018-11-29T08:00:24.827Z,15.40
2018-11-29T08:01:02.226Z,15.40
2018-11-29T08:01:39.678Z,15.40
2018-11-29T08:02:17.277Z,15.30